Time;durP1;ratioP1;P1;durP2;ratioP2;P2;SDS_P1;SDS_P2;PMS_P1;PMS_P2;Temp;Humidity;BMP_temperature;BMP_pressure;BME280_temperature;BME280_humidity;BME280_pressure;Samples;Min_cycle;Max_cycle;Signal;HPM_P1;HPM_P2
2024/01/31 00:01:20;;;;;;;33.17;19.38;;;8.00;99.90;;;;;;5005547;28;20037;-80
2024/01/31 00:03:45;;;;;;;29.08;16.65;;;8.00;99.90;;;;;;4990389;28;20115;-80
2024/01/31 00:06:11;;;;;;;32.00;18.48;;;7.80;99.90;;;;;;5022183;28;20025;-80
2024/01/31 00:08:37;;;;;;;28.13;16.67;;;7.70;99.90;;;;;;4987765;28;20040;-79
2024/01/31 00:11:03;;;;;;;25.08;13.05;;;7.70;99.90;;;;;;5005999;28;20049;-80
2024/01/31 00:13:29;;;;;;;21.42;13.68;;;7.80;99.90;;;;;;4985936;28;20025;-81
2024/01/31 00:15:54;;;;;;;26.55;14.70;;;7.80;99.90;;;;;;5021149;28;20040;-80
2024/01/31 00:18:20;;;;;;;20.20;12.27;;;7.80;99.90;;;;;;5009136;28;20044;-82
2024/01/31 00:20:46;;;;;;;23.95;13.60;;;7.80;99.90;;;;;;5003914;28;20064;-81
2024/01/31 00:23:11;;;;;;;17.70;11.10;;;7.80;99.90;;;;;;5037281;28;20030;-80
2024/01/31 00:25:37;;;;;;;25.75;14.18;;;7.80;99.90;;;;;;5019356;28;20029;-80
2024/01/31 00:28:03;;;;;;;23.75;14.70;;;7.80;99.90;;;;;;4992826;28;20025;-81
2024/01/31 00:30:28;;;;;;;25.25;14.07;;;7.70;99.90;;;;;;4991570;28;20022;-81
2024/01/31 00:32:54;;;;;;;30.20;17.45;;;7.80;99.90;;;;;;5025116;28;20037;-81
2024/01/31 00:35:19;;;;;;;24.13;13.35;;;7.80;99.90;;;;;;5004804;28;20095;-81
2024/01/31 00:37:45;;;;;;;15.45;10.27;;;7.70;99.90;;;;;;5012790;28;20485;-81
2024/01/31 00:40:11;;;;;;;27.70;14.07;;;7.70;99.90;;;;;;4991337;28;20489;-82
2024/01/31 00:42:41;;;;;;;21.90;11.73;;;7.60;99.90;;;;;;5003576;28;20107;-81
2024/01/31 00:45:07;;;;;;;25.73;13.00;;;7.60;99.90;;;;;;5003054;28;20037;-81
2024/01/31 00:47:33;;;;;;;23.38;12.35;;;7.60;99.90;;;;;;5020133;28;20087;-81
2024/01/31 00:49:58;;;;;;;18.60;9.85;;;7.50;99.90;;;;;;5000658;28;20033;-82
2024/01/31 00:52:24;;;;;;;22.60;11.00;;;7.50;99.90;;;;;;5024901;28;20040;-81
2024/01/31 00:54:50;;;;;;;29.98;11.95;;;7.50;99.90;;;;;;4994013;28;20022;-81
2024/01/31 00:57:16;;;;;;;22.50;10.93;;;7.50;99.90;;;;;;5022414;28;20043;-81
2024/01/31 00:59:42;;;;;;;14.88;8.68;;;7.40;99.90;;;;;;4989528;28;20029;-81
2024/01/31 01:02:08;;;;;;;27.30;10.20;;;7.50;99.90;;;;;;4990652;28;20021;-82
2024/01/31 01:04:35;;;;;;;21.30;9.95;;;7.40;99.90;;;;;;5018406;28;20036;-81
2024/01/31 01:07:00;;;;;;;22.85;9.80;;;7.50;99.90;;;;;;4999023;28;20044;-82
2024/01/31 01:09:26;;;;;;;18.65;9.77;;;7.40;99.90;;;;;;4999762;28;20220;-81
2024/01/31 01:11:51;;;;;;;22.42;10.30;;;7.30;99.90;;;;;;5019782;28;20040;-81
2024/01/31 01:14:17;;;;;;;16.25;8.20;;;7.40;99.90;;;;;;5017238;28;20426;-82
2024/01/31 01:16:43;;;;;;;20.60;9.38;;;7.30;99.90;;;;;;5020859;28;20140;-81
2024/01/31 01:19:09;;;;;;;22.92;10.50;;;7.30;99.90;;;;;;4991237;28;20039;-81
2024/01/31 01:21:36;;;;;;;28.85;11.40;;;7.30;99.90;;;;;;5018973;28;20473;-81
2024/01/31 01:24:02;;;;;;;18.20;7.88;;;7.30;99.90;;;;;;4990728;28;20497;-81
2024/01/31 01:26:27;;;;;;;21.30;9.57;;;7.30;99.90;;;;;;5018675;28;20069;-81
2024/01/31 01:28:53;;;;;;;24.98;10.05;;;7.30;99.90;;;;;;5018100;28;20637;-80
2024/01/31 01:31:18;;;;;;;20.95;9.00;;;7.30;99.90;;;;;;5005693;28;20119;-81
2024/01/31 01:33:44;;;;;;;21.58;8.15;;;7.30;99.90;;;;;;5005781;28;20043;-81
2024/01/31 01:36:10;;;;;;;16.88;6.78;;;7.30;99.90;;;;;;5003116;28;20049;-81
2024/01/31 01:38:38;;;;;;;19.42;9.25;;;7.20;99.90;;;;;;4990753;28;20804;-81
2024/01/31 01:41:04;;;;;;;12.48;7.00;;;7.20;99.90;;;;;;5003376;28;20108;-81
2024/01/31 01:43:32;;;;;;;23.63;8.07;;;7.30;99.90;;;;;;5003642;28;20534;-81
2024/01/31 01:46:17;;;;;;;16.70;8.15;;;7.20;99.90;;;;;;5004808;28;20040;-81
2024/01/31 01:48:49;;;;;;;19.55;8.55;;;7.20;99.90;;;;;;5003345;28;20484;-81
2024/01/31 01:51:17;;;;;;;17.13;7.32;;;7.20;99.90;;;;;;4990476;28;20033;-80
2024/01/31 01:53:42;;;;;;;16.55;7.10;;;7.20;99.90;;;;;;5003630;28;20511;-80
2024/01/31 01:56:08;;;;;;;17.00;7.50;;;7.20;99.90;;;;;;5002012;28;20032;-80
2024/01/31 01:58:34;;;;;;;16.95;7.72;;;7.10;99.90;;;;;;5004468;28;20032;-80
2024/01/31 02:01:03;;;;;;;17.02;8.75;;;7.20;99.90;;;;;;5017346;28;20029;-80
2024/01/31 02:03:29;;;;;;;20.38;8.25;;;7.20;99.90;;;;;;5008053;28;20033;-80
2024/01/31 02:05:56;;;;;;;19.20;7.88;;;7.20;99.90;;;;;;5000842;28;20149;-80
2024/01/31 02:08:22;;;;;;;10.77;6.18;;;7.20;99.90;;;;;;5020205;28;20067;-80
2024/01/31 02:10:47;;;;;;;20.67;9.00;;;7.20;99.90;;;;;;5034708;28;20056;-80
2024/01/31 02:13:13;;;;;;;18.13;7.35;;;7.20;99.90;;;;;;4988804;28;20037;-80
2024/01/31 02:15:38;;;;;;;16.75;8.18;;;7.20;99.90;;;;;;4988333;28;20025;-80
2024/01/31 02:18:04;;;;;;;16.75;6.45;;;7.20;99.90;;;;;;5014349;28;20500;-80
2024/01/31 02:20:30;;;;;;;14.32;7.78;;;7.10;99.90;;;;;;5021198;28;20031;-80
2024/01/31 02:22:55;;;;;;;23.30;9.02;;;7.10;99.90;;;;;;5018851;28;20480;-81
2024/01/31 02:25:21;;;;;;;15.43;6.45;;;7.00;99.90;;;;;;5022380;28;20037;-80
2024/01/31 02:27:46;;;;;;;22.88;8.52;;;7.00;99.90;;;;;;5033886;28;20140;-81
2024/01/31 02:30:12;;;;;;;17.73;8.98;;;7.20;99.90;;;;;;5005934;28;20033;-80
2024/01/31 02:32:41;;;;;;;16.60;8.55;;;7.10;99.90;;;;;;5024968;28;20044;-80
2024/01/31 02:35:06;;;;;;;22.25;9.80;;;7.10;99.90;;;;;;5035845;28;20566;-81
2024/01/31 02:37:32;;;;;;;17.92;9.98;;;7.10;99.90;;;;;;4990860;28;20108;-80
2024/01/31 02:40:04;;;;;;;19.98;9.85;;;7.10;99.90;;;;;;5026555;28;20438;-81
2024/01/31 02:42:29;;;;;;;11.18;6.57;;;7.00;99.90;;;;;;4995505;28;20048;-80
2024/01/31 02:44:55;;;;;;;19.63;10.38;;;7.00;99.90;;;;;;5024075;28;20037;-80
2024/01/31 02:47:20;;;;;;;12.82;6.32;;;7.00;99.90;;;;;;5022656;28;20029;-81
2024/01/31 02:49:46;;;;;;;22.20;10.30;;;7.00;99.90;;;;;;5020554;28;20082;-81
2024/01/31 02:52:12;;;;;;;15.25;7.82;;;7.00;99.90;;;;;;4994991;28;20496;-81
2024/01/31 02:54:37;;;;;;;12.48;7.80;;;7.00;99.90;;;;;;5002996;28;20033;-81
2024/01/31 02:57:03;;;;;;;20.58;10.35;;;7.10;99.90;;;;;;5001800;28;20432;-81
2024/01/31 02:59:28;;;;;;;18.25;9.05;;;6.90;99.90;;;;;;5020897;28;20041;-81
2024/01/31 03:01:54;;;;;;;23.42;10.68;;;6.90;99.90;;;;;;5022225;28;20038;-80
2024/01/31 03:04:19;;;;;;;15.55;8.18;;;6.80;99.90;;;;;;4995905;28;20083;-81
2024/01/31 03:06:45;;;;;;;17.15;8.98;;;6.80;99.90;;;;;;5020146;28;20029;-81
2024/01/31 03:09:11;;;;;;;16.35;9.88;;;6.90;99.90;;;;;;5007890;28;20025;-81
2024/01/31 03:11:36;;;;;;;17.65;8.45;;;6.90;99.90;;;;;;5022567;28;20048;-81
2024/01/31 03:14:02;;;;;;;17.25;8.90;;;6.90;99.90;;;;;;5006723;28;20029;-80
2024/01/31 03:16:27;;;;;;;23.63;9.23;;;6.90;99.90;;;;;;5018217;28;20040;-81
2024/01/31 03:18:55;;;;;;;10.57;5.70;;;6.90;99.90;;;;;;5021403;28;20075;-80
2024/01/31 03:21:21;;;;;;;20.15;8.35;;;6.90;99.90;;;;;;5023987;28;20527;-81
2024/01/31 03:23:47;;;;;;;22.80;8.20;;;6.90;99.90;;;;;;5003657;28;20022;-80
2024/01/31 03:26:12;;;;;;;18.52;8.48;;;6.80;99.90;;;;;;4994274;28;20029;-81
2024/01/31 03:28:38;;;;;;;14.07;6.88;;;6.90;99.90;;;;;;5026879;28;20409;-81
2024/01/31 03:31:03;;;;;;;18.83;8.02;;;6.80;99.90;;;;;;5038245;28;20481;-81
2024/01/31 03:33:29;;;;;;;14.55;8.18;;;6.80;99.90;;;;;;4993745;28;20033;-81
2024/01/31 03:35:54;;;;;;;16.77;7.65;;;6.70;99.90;;;;;;4994521;28;20455;-80
2024/01/31 03:38:20;;;;;;;15.98;7.93;;;6.70;99.90;;;;;;5006027;28;20497;-81
2024/01/31 03:40:46;;;;;;;9.48;5.35;;;6.70;99.90;;;;;;4995401;28;20518;-80
2024/01/31 03:43:11;;;;;;;12.27;5.65;;;6.80;99.90;;;;;;5004904;28;20047;-80
2024/01/31 03:45:37;;;;;;;16.00;5.85;;;6.80;99.90;;;;;;4993169;28;20515;-81
2024/01/31 03:48:02;;;;;;;18.58;7.82;;;6.80;99.90;;;;;;5036665;28;20033;-80
2024/01/31 03:50:28;;;;;;;14.80;8.23;;;6.80;99.90;;;;;;5035799;28;20111;-81
2024/01/31 03:52:54;;;;;;;20.20;8.40;;;6.70;99.90;;;;;;5006248;28;20044;-80
2024/01/31 03:55:19;;;;;;;11.02;5.05;;;6.70;99.90;;;;;;4993081;28;20064;-80
2024/01/31 03:57:45;;;;;;;17.45;7.18;;;6.70;99.90;;;;;;5018215;28;20037;-81
2024/01/31 04:00:12;;;;;;;9.35;5.10;;;6.70;99.90;;;;;;5004651;28;20040;-80
2024/01/31 04:02:38;;;;;;;18.05;7.28;;;6.80;99.90;;;;;;5005352;28;20164;-81
2024/01/31 04:05:04;;;;;;;13.68;7.10;;;6.70;99.90;;;;;;5022610;28;20112;-81
2024/01/31 04:07:29;;;;;;;17.80;7.50;;;6.70;99.90;;;;;;5035627;28;20030;-81
2024/01/31 04:09:55;;;;;;;9.35;5.50;;;6.70;99.90;;;;;;5022610;28;20037;-81
2024/01/31 04:12:21;;;;;;;12.30;4.68;;;6.70;99.90;;;;;;4986193;28;20540;-81
2024/01/31 04:14:46;;;;;;;5.30;3.35;;;6.70;99.90;;;;;;5010418;28;20035;-81
2024/01/31 04:17:12;;;;;;;5.90;4.10;;;6.70;99.90;;;;;;5024351;28;20086;-81
2024/01/31 04:19:37;;;;;;;13.57;6.38;;;6.70;99.90;;;;;;5018216;28;20404;-80
2024/01/31 04:22:03;;;;;;;7.88;4.10;;;6.70;99.90;;;;;;5006354;28;20512;-80
2024/01/31 04:24:29;;;;;;;6.72;3.67;;;6.60;99.90;;;;;;4993355;28;20033;-80
2024/01/31 04:26:55;;;;;;;5.85;3.40;;;6.60;99.90;;;;;;5014044;28;20050;-80
2024/01/31 04:29:21;;;;;;;10.55;4.88;;;6.60;99.90;;;;;;5023608;28;20029;-80
2024/01/31 04:31:52;;;;;;;9.10;5.28;;;6.60;99.90;;;;;;5001241;28;20562;-79
2024/01/31 04:34:20;;;;;;;8.55;4.90;;;6.60;99.90;;;;;;5012057;28;20040;-80
2024/01/31 04:36:45;;;;;;;5.38;3.38;;;6.60;99.90;;;;;;5003995;28;20491;-79
2024/01/31 04:39:11;;;;;;;11.80;5.80;;;6.60;99.90;;;;;;5002001;28;20025;-79
2024/01/31 04:41:37;;;;;;;10.80;5.18;;;6.50;99.90;;;;;;5033308;28;20493;-79
2024/01/31 04:44:02;;;;;;;13.63;6.90;;;6.50;99.90;;;;;;5005303;28;20041;-79
2024/01/31 04:46:28;;;;;;;4.70;3.13;;;6.40;99.90;;;;;;5006182;28;20029;-79
2024/01/31 04:48:54;;;;;;;6.40;2.90;;;6.50;99.90;;;;;;5006563;28;20400;-79
2024/01/31 04:51:19;;;;;;;6.78;3.40;;;6.60;99.90;;;;;;5003965;28;20030;-79
2024/01/31 04:53:45;;;;;;;17.15;5.15;;;6.60;99.90;;;;;;5009385;28;20028;-80
2024/01/31 04:56:10;;;;;;;12.82;6.20;;;6.50;99.90;;;;;;5003980;28;20044;-79
2024/01/31 04:58:36;;;;;;;12.52;6.05;;;6.50;99.90;;;;;;5018812;28;20112;-79
2024/01/31 05:01:03;;;;;;;8.77;5.55;;;6.40;99.90;;;;;;4990194;28;20045;-79
2024/01/31 05:03:29;;;;;;;7.10;3.38;;;6.40;99.90;;;;;;5006845;28;20029;-80
2024/01/31 05:05:54;;;;;;;13.98;6.95;;;6.50;99.90;;;;;;4991231;28;20045;-79
2024/01/31 05:08:20;;;;;;;5.82;3.53;;;6.50;99.90;;;;;;4990751;28;20037;-79
2024/01/31 05:10:46;;;;;;;12.13;5.03;;;6.50;99.90;;;;;;5020576;28;20491;-79
2024/01/31 05:13:12;;;;;;;16.02;6.47;;;6.50;99.90;;;;;;5038288;28;20493;-79
2024/01/31 05:15:38;;;;;;;13.18;6.32;;;6.50;99.90;;;;;;5004833;28;20056;-79
2024/01/31 05:18:04;;;;;;;12.68;5.75;;;6.40;99.90;;;;;;4990454;28;20875;-79
2024/01/31 05:20:29;;;;;;;5.78;3.20;;;6.40;99.90;;;;;;5002881;28;20117;-79
2024/01/31 05:22:56;;;;;;;6.18;3.55;;;6.50;99.90;;;;;;5023090;28;20025;-79
2024/01/31 05:25:21;;;;;;;5.88;3.03;;;6.50;99.90;;;;;;4984581;28;20212;-79
2024/01/31 05:27:49;;;;;;;8.25;4.07;;;6.50;99.90;;;;;;5019140;28;20396;-79
2024/01/31 05:30:14;;;;;;;5.95;3.08;;;6.50;99.90;;;;;;5018154;28;20144;-79
2024/01/31 05:32:40;;;;;;;7.43;3.35;;;6.50;99.90;;;;;;4989720;28;20433;-79
2024/01/31 05:35:07;;;;;;;8.60;4.55;;;6.60;99.90;;;;;;5002637;28;20047;-79
2024/01/31 05:37:33;;;;;;;8.93;3.85;;;6.60;99.90;;;;;;5018416;28;20052;-79
2024/01/31 05:39:58;;;;;;;5.72;3.38;;;6.50;99.90;;;;;;5009200;28;20064;-79
2024/01/31 05:42:24;;;;;;;5.05;2.55;;;6.50;99.90;;;;;;4987603;28;20038;-79
2024/01/31 05:44:53;;;;;;;6.55;2.85;;;6.50;99.90;;;;;;4989768;28;20029;-78
2024/01/31 05:47:19;;;;;;;5.30;2.97;;;6.60;99.90;;;;;;5000291;28;20025;-79
2024/01/31 05:49:44;;;;;;;8.32;2.65;;;6.50;99.90;;;;;;5015525;28;20036;-79
2024/01/31 05:52:10;;;;;;;10.75;4.93;;;6.50;99.90;;;;;;5001845;28;20151;-79
2024/01/31 05:54:35;;;;;;;8.07;4.75;;;6.40;99.90;;;;;;5021772;28;20759;-78
2024/01/31 05:57:01;;;;;;;5.20;2.50;;;6.40;99.90;;;;;;4989112;28;20381;-79
2024/01/31 05:59:26;;;;;;;11.90;5.68;;;6.50;99.90;;;;;;5000326;28;20106;-78
2024/01/31 06:01:52;;;;;;;13.00;6.22;;;6.50;99.90;;;;;;5010676;28;20687;-78
2024/01/31 06:04:17;;;;;;;13.35;7.45;;;6.60;99.90;;;;;;5022226;28;20021;-79
2024/01/31 06:06:43;;;;;;;11.00;5.38;;;6.60;99.90;;;;;;5019728;28;20392;-79
2024/01/31 06:09:09;;;;;;;15.80;7.53;;;6.60;99.90;;;;;;5022935;28;20043;-83
2024/01/31 06:11:35;;;;;;;7.63;4.53;;;6.70;99.90;;;;;;5012554;28;20036;-81
2024/01/31 06:14:00;;;;;;;8.38;5.22;;;6.60;99.90;;;;;;5025455;28;20029;-82
2024/01/31 06:16:26;;;;;;;8.15;5.05;;;6.50;99.90;;;;;;5023082;28;20113;-82
2024/01/31 06:18:54;;;;;;;8.50;5.07;;;6.50;99.90;;;;;;5026942;28;20060;-82
2024/01/31 06:21:21;;;;;;;14.25;6.10;;;6.40;99.90;;;;;;5022657;28;20033;-83
2024/01/31 06:23:48;;;;;;;8.02;4.13;;;6.50;99.90;;;;;;5021399;28;20033;-80
2024/01/31 06:26:13;;;;;;;12.13;4.40;;;6.50;99.90;;;;;;5006966;28;20044;-82
2024/01/31 06:28:39;;;;;;;13.00;6.85;;;6.60;99.90;;;;;;5006124;28;20029;-81
2024/01/31 06:31:16;;;;;;;8.63;4.40;;;6.70;99.90;;;;;;5009002;28;20400;-82
2024/01/31 06:33:42;;;;;;;13.70;5.35;;;6.60;99.90;;;;;;5008031;28;20033;-81
2024/01/31 06:36:08;;;;;;;7.43;5.25;;;6.50;99.90;;;;;;4980950;28;20889;-80
2024/01/31 06:38:33;;;;;;;9.98;5.32;;;6.50;99.90;;;;;;5012128;28;20151;-81
2024/01/31 06:40:59;;;;;;;6.68;4.70;;;6.60;99.90;;;;;;5006186;28;20120;-80
2024/01/31 06:43:25;;;;;;;8.50;4.80;;;6.70;99.90;;;;;;5005639;28;20052;-80
2024/01/31 06:45:51;;;;;;;7.63;4.90;;;6.70;99.90;;;;;;5023133;28;20037;-81
2024/01/31 06:48:18;;;;;;;13.40;6.35;;;6.60;99.90;;;;;;5025489;28;20037;-81
2024/01/31 06:50:44;;;;;;;6.32;4.03;;;6.60;99.90;;;;;;5036903;28;20413;-81
2024/01/31 06:53:09;;;;;;;5.97;4.00;;;6.60;99.90;;;;;;4994115;28;20041;-81
2024/01/31 06:55:35;;;;;;;10.35;6.05;;;6.50;99.90;;;;;;5025787;28;20037;-81
2024/01/31 06:58:00;;;;;;;8.85;4.18;;;6.60;99.90;;;;;;5035803;28;20633;-80
2024/01/31 07:00:26;;;;;;;6.55;4.03;;;6.70;99.90;;;;;;5006416;28;20040;-80
2024/01/31 07:02:53;;;;;;;14.10;5.82;;;6.70;99.90;;;;;;5017261;28;20033;-79
2024/01/31 07:05:19;;;;;;;8.43;4.30;;;6.80;99.90;;;;;;5023843;28;20025;-80
2024/01/31 07:07:46;;;;;;;15.00;5.78;;;6.60;99.90;;;;;;5004119;28;20038;-79
2024/01/31 07:10:11;;;;;;;10.82;4.70;;;6.50;99.90;;;;;;5023257;28;20033;-79
2024/01/31 07:12:38;;;;;;;5.75;3.25;;;6.60;99.90;;;;;;4993921;28;20079;-79
2024/01/31 07:15:04;;;;;;;9.43;5.00;;;6.80;99.90;;;;;;5021284;28;20521;-79
2024/01/31 07:17:30;;;;;;;10.10;4.70;;;6.90;99.90;;;;;;5018932;28;20051;-79
2024/01/31 07:19:56;;;;;;;5.55;3.53;;;7.00;99.90;;;;;;5021244;28;20029;-79
2024/01/31 07:22:22;;;;;;;11.32;5.28;;;6.90;99.90;;;;;;5007645;28;20135;-79
2024/01/31 07:24:48;;;;;;;6.60;4.50;;;6.90;99.90;;;;;;5006090;28;20064;-79
2024/01/31 07:27:13;;;;;;;6.68;4.28;;;7.00;99.90;;;;;;4992223;28;20026;-79
2024/01/31 07:29:39;;;;;;;11.02;5.30;;;7.00;99.90;;;;;;4994532;28;20047;-79
2024/01/31 07:32:05;;;;;;;11.85;6.28;;;6.90;99.90;;;;;;5035849;28;20052;-79
2024/01/31 07:34:31;;;;;;;16.65;8.02;;;6.90;99.90;;;;;;5020752;28;20531;-79
2024/01/31 07:36:56;;;;;;;13.73;6.95;;;6.90;99.90;;;;;;5022070;28;20127;-79
2024/01/31 07:39:22;;;;;;;14.50;7.43;;;6.90;99.90;;;;;;5020421;28;20029;-79
2024/01/31 07:41:48;;;;;;;15.32;8.40;;;6.90;99.90;;;;;;5022602;28;20033;-79
2024/01/31 07:44:13;;;;;;;13.70;8.80;;;6.70;99.90;;;;;;4993152;28;20033;-79
2024/01/31 07:46:39;;;;;;;12.68;6.32;;;6.70;99.90;;;;;;5026020;28;21229;-79
2024/01/31 07:49:06;;;;;;;14.15;6.35;;;6.80;99.90;;;;;;5007280;28;20345;-79
2024/01/31 07:51:32;;;;;;;16.33;8.10;;;6.90;99.90;;;;;;5023707;28;20061;-79
2024/01/31 07:53:57;;;;;;;12.77;6.75;;;6.90;99.90;;;;;;5006040;28;20112;-80
2024/01/31 07:56:23;;;;;;;17.58;7.53;;;6.80;99.90;;;;;;5019074;28;20037;-79
2024/01/31 07:58:48;;;;;;;15.40;7.10;;;6.70;99.90;;;;;;4994373;28;20029;-79
2024/01/31 08:01:14;;;;;;;14.57;7.35;;;6.80;99.90;;;;;;4993543;28;20033;-79
2024/01/31 08:03:41;;;;;;;16.23;9.30;;;6.90;99.90;;;;;;5008041;28;20389;-79
2024/01/31 08:06:07;;;;;;;17.35;8.30;;;6.90;99.90;;;;;;5024408;28;20134;-79
2024/01/31 08:08:32;;;;;;;21.35;10.80;;;6.90;99.90;;;;;;5005932;28;20070;-79
2024/01/31 08:10:59;;;;;;;15.95;8.07;;;6.80;99.90;;;;;;4991176;28;20041;-79
2024/01/31 08:13:25;;;;;;;17.35;8.02;;;6.70;99.90;;;;;;5023207;28;20477;-79
2024/01/31 08:15:51;;;;;;;27.17;11.57;;;6.70;99.90;;;;;;5021076;28;20033;-79
2024/01/31 08:18:16;;;;;;;12.52;6.47;;;6.70;99.90;;;;;;5015552;28;20380;-79
2024/01/31 08:20:42;;;;;;;25.00;11.77;;;6.70;99.90;;;;;;5004360;28;20401;-79
2024/01/31 08:23:08;;;;;;;24.58;11.32;;;6.70;99.90;;;;;;5007127;28;20672;-79
2024/01/31 08:25:34;;;;;;;18.25;8.95;;;6.70;99.90;;;;;;5003442;28;20021;-79
2024/01/31 08:28:00;;;;;;;21.83;11.40;;;6.80;99.90;;;;;;5021594;28;20029;-79
2024/01/31 08:30:26;;;;;;;22.98;12.20;;;6.70;99.90;;;;;;5022652;28;20075;-79
2024/01/31 08:32:52;;;;;;;17.50;8.25;;;6.60;99.90;;;;;;4991861;28;20041;-80
2024/01/31 08:35:17;;;;;;;18.08;9.40;;;6.70;99.90;;;;;;5005794;28;20074;-81
2024/01/31 08:37:43;;;;;;;20.90;11.90;;;6.70;99.90;;;;;;5020425;28;20033;-81
2024/01/31 08:40:10;;;;;;;27.15;12.65;;;6.70;99.90;;;;;;4990342;28;20547;-81
2024/01/31 08:42:38;;;;;;;21.60;11.35;;;6.70;99.90;;;;;;5006574;28;20400;-81
2024/01/31 08:45:06;;;;;;;14.80;7.22;;;6.70;99.90;;;;;;4992564;28;20374;-80
2024/01/31 08:47:31;;;;;;;15.80;7.57;;;6.80;99.90;;;;;;5017621;28;20021;-80
2024/01/31 08:49:57;;;;;;;19.52;10.35;;;6.80;99.90;;;;;;5037341;28;20492;-80
2024/01/31 08:52:22;;;;;;;12.82;7.60;;;6.90;99.90;;;;;;5007539;28;20376;-80
2024/01/31 08:54:48;;;;;;;13.85;7.93;;;6.90;99.90;;;;;;4990289;28;20552;-80
2024/01/31 08:57:13;;;;;;;18.08;9.55;;;6.90;99.90;;;;;;5018777;28;20047;-81
2024/01/31 08:59:39;;;;;;;19.75;8.77;;;6.90;99.90;;;;;;4990759;28;20021;-80
2024/01/31 09:02:05;;;;;;;16.98;8.15;;;7.00;99.90;;;;;;5006767;28;20076;-81
2024/01/31 09:04:30;;;;;;;12.23;6.95;;;6.90;99.90;;;;;;5033812;28;20142;-81
2024/01/31 09:06:56;;;;;;;10.70;6.32;;;6.90;99.90;;;;;;4991277;28;20356;-81
2024/01/31 09:09:22;;;;;;;17.13;8.55;;;7.00;99.90;;;;;;5005100;28;20424;-81
2024/01/31 09:11:47;;;;;;;16.02;9.32;;;7.00;99.90;;;;;;5005294;28;20037;-81
2024/01/31 09:14:13;;;;;;;16.40;7.40;;;7.00;99.90;;;;;;5021739;28;20037;-80
2024/01/31 09:16:38;;;;;;;14.30;7.65;;;7.00;99.90;;;;;;5005133;28;20024;-81
2024/01/31 09:19:04;;;;;;;13.27;6.07;;;7.00;99.90;;;;;;4990584;28;20037;-81
2024/01/31 09:21:31;;;;;;;12.70;6.43;;;7.10;99.90;;;;;;4991464;28;20080;-81
2024/01/31 09:23:57;;;;;;;13.60;7.05;;;7.10;99.90;;;;;;5006230;28;20040;-80
2024/01/31 09:26:23;;;;;;;16.27;8.82;;;7.10;99.90;;;;;;4991980;28;20025;-81
2024/01/31 09:28:49;;;;;;;13.07;6.38;;;7.10;99.90;;;;;;5004908;28;20051;-80
2024/01/31 09:31:24;;;;;;;15.80;7.70;;;7.10;99.90;;;;;;5021565;28;20464;-82
2024/01/31 09:33:50;;;;;;;15.13;8.23;;;7.20;99.90;;;;;;4990677;28;20037;-80
2024/01/31 09:36:15;;;;;;;12.60;6.25;;;7.20;99.90;;;;;;4988629;28;20041;-80
2024/01/31 09:38:41;;;;;;;15.90;8.57;;;7.30;99.90;;;;;;5005455;28;20108;-80
2024/01/31 09:41:07;;;;;;;12.63;6.20;;;7.30;99.90;;;;;;5019450;28;20081;-79
2024/01/31 09:43:32;;;;;;;20.75;10.50;;;7.30;99.90;;;;;;5008486;28;20108;-79
2024/01/31 09:45:58;;;;;;;17.48;7.50;;;7.30;99.90;;;;;;4985167;28;20025;-80
2024/01/31 09:48:23;;;;;;;15.98;7.68;;;7.30;99.90;;;;;;5003458;28;20496;-79
2024/01/31 09:50:49;;;;;;;20.55;10.43;;;7.40;99.90;;;;;;5004337;28;20090;-79
2024/01/31 09:53:15;;;;;;;11.48;5.97;;;7.40;99.90;;;;;;4989022;28;20033;-79
2024/01/31 09:55:41;;;;;;;15.00;7.38;;;7.40;99.90;;;;;;4988644;28;20036;-79
2024/01/31 09:58:08;;;;;;;22.15;9.88;;;7.50;99.90;;;;;;5033401;28;20029;-79
2024/01/31 10:00:33;;;;;;;14.85;7.40;;;7.50;99.90;;;;;;5002882;28;20025;-79
2024/01/31 10:02:59;;;;;;;13.05;7.30;;;7.50;99.90;;;;;;5004059;28;20033;-79
2024/01/31 10:05:25;;;;;;;22.92;11.35;;;7.50;99.90;;;;;;5000672;28;20033;-80
2024/01/31 10:07:59;;;;;;;16.70;8.35;;;7.50;99.90;;;;;;4985836;28;20044;-79
2024/01/31 10:10:25;;;;;;;21.33;9.77;;;7.50;99.90;;;;;;5017723;28;20255;-79
2024/01/31 10:12:50;;;;;;;19.20;9.27;;;7.60;99.90;;;;;;5005108;28;20056;-79
2024/01/31 10:15:18;;;;;;;13.70;8.05;;;7.60;99.90;;;;;;4987609;28;20053;-78
2024/01/31 10:17:44;;;;;;;31.40;13.82;;;7.60;99.90;;;;;;4990106;28;20021;-78
2024/01/31 10:20:10;;;;;;;22.23;11.02;;;7.70;99.90;;;;;;4991164;28;20036;-78
2024/01/31 10:22:36;;;;;;;18.67;9.60;;;7.70;99.90;;;;;;5003987;28;20552;-78
2024/01/31 10:25:07;;;;;;;14.57;9.07;;;7.70;99.90;;;;;;5004876;28;20108;-79
2024/01/31 10:27:37;;;;;;;15.07;9.10;;;7.80;99.90;;;;;;5001342;28;20059;-80
2024/01/31 10:30:05;;;;;;;13.80;7.88;;;7.80;99.90;;;;;;5004213;28;20505;-78
2024/01/31 10:32:30;;;;;;;21.63;10.73;;;7.90;99.90;;;;;;5015694;28;20060;-79
2024/01/31 10:34:56;;;;;;;16.73;7.25;;;7.90;99.90;;;;;;4993165;28;20497;-78
2024/01/31 10:37:21;;;;;;;16.65;8.30;;;7.90;99.90;;;;;;5002054;28;20033;-78
2024/01/31 10:39:47;;;;;;;15.05;8.70;;;7.90;99.90;;;;;;5005016;28;20446;-78
2024/01/31 10:42:13;;;;;;;20.23;8.52;;;7.90;99.90;;;;;;5002559;28;20541;-78
2024/01/31 10:44:39;;;;;;;18.00;10.38;;;8.00;99.90;;;;;;4987631;28;20033;-78
2024/01/31 10:47:04;;;;;;;24.40;11.52;;;8.00;99.90;;;;;;4999752;28;20417;-78
2024/01/31 10:49:30;;;;;;;16.65;7.63;;;8.00;99.90;;;;;;5003468;28;20029;-79
2024/01/31 10:51:56;;;;;;;16.00;8.13;;;8.00;99.90;;;;;;5002593;28;20065;-79
2024/01/31 10:54:25;;;;;;;17.83;9.55;;;8.10;99.90;;;;;;5007020;28;20493;-80
2024/01/31 10:56:51;;;;;;;14.68;7.38;;;8.10;99.90;;;;;;5008379;28;20542;-80
2024/01/31 10:59:17;;;;;;;18.90;8.27;;;8.10;99.90;;;;;;4994398;28;20033;-80
2024/01/31 11:01:56;;;;;;;18.73;10.48;;;8.10;99.90;;;;;;5004852;28;20135;-80
2024/01/31 11:04:22;;;;;;;17.88;9.25;;;8.10;99.90;;;;;;5003357;28;20033;-80
2024/01/31 11:06:49;;;;;;;15.77;7.70;;;8.20;99.90;;;;;;5004381;28;20037;-79
2024/01/31 11:09:22;;;;;;;14.63;7.95;;;8.30;99.90;;;;;;5004710;28;20114;-79
2024/01/31 11:12:04;;;;;;;13.75;7.80;;;8.30;99.90;;;;;;5019689;28;20041;-80
2024/01/31 11:14:30;;;;;;;12.82;7.05;;;8.30;99.90;;;;;;4993665;28;20088;-79
2024/01/31 11:17:09;;;;;;;16.27;8.60;;;8.30;99.90;;;;;;5007032;28;20053;-79
2024/01/31 11:19:39;;;;;;;15.90;7.53;;;8.30;99.90;;;;;;5022065;28;20027;-80
2024/01/31 11:22:06;;;;;;;16.42;7.45;;;8.30;99.90;;;;;;5004719;28;20034;-77
2024/01/31 11:24:32;;;;;;;15.10;7.63;;;8.40;99.90;;;;;;5005799;28;20564;-78
2024/01/31 11:26:58;;;;;;;18.40;7.63;;;8.40;99.90;;;;;;5022625;28;20124;-78
2024/01/31 11:29:24;;;;;;;12.23;6.95;;;8.40;99.90;;;;;;5008792;28;20500;-78
2024/01/31 11:31:50;;;;;;;12.20;7.75;;;8.50;99.90;;;;;;5006748;28;20028;-78
2024/01/31 11:34:16;;;;;;;11.20;6.97;;;8.50;99.90;;;;;;5020040;28;20025;-77
2024/01/31 11:36:50;;;;;;;14.60;6.82;;;8.60;99.90;;;;;;5005433;28;20056;-78
2024/01/31 11:39:15;;;;;;;14.02;7.30;;;8.60;99.90;;;;;;5021769;28;20451;-79
2024/01/31 11:41:41;;;;;;;13.90;8.00;;;8.60;99.90;;;;;;4990691;28;20053;-79
2024/01/31 11:44:07;;;;;;;14.18;7.28;;;8.60;99.90;;;;;;4315261;28;9999984;-79
2024/01/31 11:46:32;;;;;;;15.93;6.82;;;8.60;99.90;;;;;;5015576;28;20120;-79
2024/01/31 11:48:58;;;;;;;18.80;7.30;;;8.60;99.90;;;;;;5019599;28;20037;-79
2024/01/31 11:51:24;;;;;;;19.40;8.70;;;8.40;99.90;;;;;;5003502;28;20033;-79
2024/01/31 11:53:49;;;;;;;14.15;8.40;;;8.40;99.90;;;;;;5005983;28;20037;-79
2024/01/31 11:56:15;;;;;;;20.63;9.85;;;8.40;99.90;;;;;;4990602;28;20053;-79
2024/01/31 11:58:40;;;;;;;16.63;8.45;;;8.60;99.90;;;;;;4991586;28;20032;-79
2024/01/31 12:01:06;;;;;;;14.93;7.55;;;8.60;99.90;;;;;;5020019;28;20043;-78
2024/01/31 12:03:32;;;;;;;15.77;7.28;;;8.60;99.90;;;;;;5021476;28;20038;-78
2024/01/31 12:05:57;;;;;;;16.13;6.95;;;8.50;99.90;;;;;;5003138;28;20037;-80
2024/01/31 12:08:27;;;;;;;18.00;9.38;;;8.60;99.90;;;;;;4989541;28;20025;-79
2024/01/31 12:10:54;;;;;;;15.27;7.07;;;8.70;99.90;;;;;;5007591;28;20033;-79
2024/01/31 12:13:20;;;;;;;16.63;8.15;;;8.50;99.90;;;;;;5022243;28;20354;-79
2024/01/31 12:15:46;;;;;;;17.58;8.50;;;8.60;99.90;;;;;;5023561;28;20032;-79
2024/01/31 12:18:13;;;;;;;23.10;8.43;;;8.60;99.90;;;;;;5005614;28;20034;-80
2024/01/31 12:20:39;;;;;;;16.67;8.23;;;8.70;99.90;;;;;;5036631;28;21207;-79
2024/01/31 12:23:04;;;;;;;19.08;9.15;;;8.80;99.90;;;;;;5036006;28;20033;-79
2024/01/31 12:25:30;;;;;;;16.25;8.10;;;8.70;99.90;;;;;;5019446;28;20021;-80
2024/01/31 12:27:55;;;;;;;21.17;8.93;;;8.60;99.90;;;;;;5018899;28;20460;-80
2024/01/31 12:30:21;;;;;;;21.38;9.68;;;8.70;99.90;;;;;;5033074;28;20076;-79
2024/01/31 12:32:47;;;;;;;19.38;9.48;;;8.60;99.90;;;;;;5005608;28;20032;-79
2024/01/31 12:35:12;;;;;;;20.42;11.60;;;8.70;99.90;;;;;;5021568;28;20061;-79
2024/01/31 12:37:39;;;;;;;22.90;12.80;;;8.90;99.90;;;;;;5001027;28;20034;-79
2024/01/31 12:40:07;;;;;;;17.83;9.40;;;9.00;99.90;;;;;;5022320;28;20033;-79